Terminal Aerodrome Forecast
Issued by NWS

Home | Current Version | Previous Version | Text Only | Print | Product List | Glossary On
Versions: 1 2 3 4 5 6 7 8 9 10 11 12 13 14 15 16 17 18 19 20 21
554
FTUS44 KLIX 260617 AAB
TAFGPT
TAF AMD
KGPT 260617Z 2606/2706 05006KT P6SM SKC
     FM261600 13005KT P6SM VCSH SCT025 BKN090
      TEMPO 2618/2622 VRB15G25KT 1SM TSRA BKN025CB BKN090
     FM262200 20009KT P6SM BKN040=

USA.gov is the U.S. government's official web portal to all federal, state and local government web resources and services.